EGNR/CEG METAR and TAF weather

Enter ICAO airport designator
Station Type Date Time Source
EGNR METAR 2019/10/20 17:50 UTC NOAA

EGNR 201750Z 35011KT 9999 SCT028 SCT034 10/07 Q1018


Station Type Date Time Source
EGNR Decoded METAR 2019/10/20 17:50 UTC NOAA

Hawarden, United Kingdom (EGNR) 53-10N 002-59W 0M
Oct 20, 2019 - 01:50 PM EDT / 2019.10.20 1750 UTC
Wind: from the N (350 degrees) at 13 MPH (11 KT):0
Visibility: greater than 7 mile(s):0
Sky conditions: partly cloudy
Temperature: 50 F (10 C)
Dew Point: 44 F (7 C)
Relative Humidity: 81%
Pressure (altimeter): 30.06 in. Hg (1018 hPa)
ob: EGNR 201750Z 35011KT 9999 SCT028 SCT034 10/07 Q1018
cycle: 18

Station Type Date Time Source
EGNR TAF 2016/01/23 12:00 UTC NOAA

TAF EGNR 231059Z 2312/2319 15009KT 9999 FEW020
BECMG 2316/2319 BKN014
TEMPO 2317/2319 6000 RA BKN008

Example: see airport list